sensor_id;sensor_type;location;lat;lon;timestamp;P1;durP1;ratioP1;P2;durP2;ratioP2
51260;SDS011;61705;46.228;24.812;2023-04-30T00:01:25;26.50;;;12.60;;
51260;SDS011;61705;46.228;24.812;2023-04-30T00:03:52;25.25;;;11.85;;
51260;SDS011;61705;46.228;24.812;2023-04-30T00:06:19;24.20;;;11.57;;
51260;SDS011;61705;46.228;24.812;2023-04-30T00:08:49;22.05;;;11.18;;
51260;SDS011;61705;46.228;24.812;2023-04-30T00:11:16;20.52;;;10.98;;
51260;SDS011;61705;46.228;24.812;2023-04-30T00:13:43;22.80;;;10.65;;
51260;SDS011;61705;46.228;24.812;2023-04-30T00:16:11;22.90;;;11.38;;
51260;SDS011;61705;46.228;24.812;2023-04-30T00:18:38;22.35;;;11.38;;
51260;SDS011;61705;46.228;24.812;2023-04-30T00:21:05;30.08;;;12.23;;
51260;SDS011;61705;46.228;24.812;2023-04-30T00:23:32;19.02;;;10.18;;
51260;SDS011;61705;46.228;24.812;2023-04-30T00:25:58;27.90;;;11.77;;
51260;SDS011;61705;46.228;24.812;2023-04-30T00:28:25;22.50;;;12.23;;
51260;SDS011;61705;46.228;24.812;2023-04-30T00:30:52;22.63;;;11.35;;
51260;SDS011;61705;46.228;24.812;2023-04-30T00:33:21;24.70;;;11.10;;
51260;SDS011;61705;46.228;24.812;2023-04-30T00:35:48;19.05;;;9.98;;
51260;SDS011;61705;46.228;24.812;2023-04-30T00:38:16;26.92;;;10.30;;
51260;SDS011;61705;46.228;24.812;2023-04-30T00:40:45;21.27;;;10.35;;
51260;SDS011;61705;46.228;24.812;2023-04-30T00:43:12;21.30;;;10.15;;
51260;SDS011;61705;46.228;24.812;2023-04-30T00:45:39;20.35;;;10.57;;
51260;SDS011;61705;46.228;24.812;2023-04-30T00:48:05;19.70;;;10.10;;
51260;SDS011;61705;46.228;24.812;2023-04-30T00:50:34;21.50;;;11.13;;
51260;SDS011;61705;46.228;24.812;2023-04-30T00:53:02;21.88;;;10.27;;
51260;SDS011;61705;46.228;24.812;2023-04-30T00:55:29;18.35;;;9.30;;
51260;SDS011;61705;46.228;24.812;2023-04-30T00:57:55;20.55;;;10.77;;
51260;SDS011;61705;46.228;24.812;2023-04-30T01:00:25;21.63;;;9.93;;
51260;SDS011;61705;46.228;24.812;2023-04-30T01:02:53;22.92;;;11.57;;
51260;SDS011;61705;46.228;24.812;2023-04-30T01:05:22;23.02;;;10.10;;
51260;SDS011;61705;46.228;24.812;2023-04-30T01:07:48;24.38;;;10.90;;
51260;SDS011;61705;46.228;24.812;2023-04-30T01:10:16;22.95;;;10.52;;
51260;SDS011;61705;46.228;24.812;2023-04-30T01:12:46;20.90;;;10.93;;
51260;SDS011;61705;46.228;24.812;2023-04-30T01:15:29;19.08;;;9.88;;
51260;SDS011;61705;46.228;24.812;2023-04-30T01:18:20;21.08;;;9.65;;
51260;SDS011;61705;46.228;24.812;2023-04-30T01:21:01;17.23;;;9.63;;
51260;SDS011;61705;46.228;24.812;2023-04-30T01:26:42;20.73;;;10.32;;
51260;SDS011;61705;46.228;24.812;2023-04-30T01:29:18;17.33;;;9.52;;
51260;SDS011;61705;46.228;24.812;2023-04-30T01:31:46;15.95;;;9.07;;
51260;SDS011;61705;46.228;24.812;2023-04-30T01:34:12;20.90;;;10.32;;
51260;SDS011;61705;46.228;24.812;2023-04-30T01:39:28;22.40;;;9.90;;
51260;SDS011;61705;46.228;24.812;2023-04-30T01:53:01;21.25;;;10.10;;
51260;SDS011;61705;46.228;24.812;2023-04-30T01:55:36;20.55;;;9.30;;
51260;SDS011;61705;46.228;24.812;2023-04-30T01:58:14;16.00;;;9.45;;
51260;SDS011;61705;46.228;24.812;2023-04-30T02:00:43;24.52;;;9.32;;
51260;SDS011;61705;46.228;24.812;2023-04-30T02:03:10;27.48;;;9.40;;
51260;SDS011;61705;46.228;24.812;2023-04-30T02:05:39;21.83;;;9.05;;
51260;SDS011;61705;46.228;24.812;2023-04-30T02:08:06;19.63;;;9.00;;
51260;SDS011;61705;46.228;24.812;2023-04-30T02:10:33;17.63;;;8.63;;
51260;SDS011;61705;46.228;24.812;2023-04-30T02:12:59;22.13;;;10.25;;
51260;SDS011;61705;46.228;24.812;2023-04-30T02:15:26;21.70;;;10.25;;
51260;SDS011;61705;46.228;24.812;2023-04-30T02:17:53;20.92;;;10.27;;
51260;SDS011;61705;46.228;24.812;2023-04-30T02:20:22;20.40;;;9.73;;
51260;SDS011;61705;46.228;24.812;2023-04-30T02:22:49;20.33;;;10.63;;
51260;SDS011;61705;46.228;24.812;2023-04-30T02:25:18;23.83;;;10.95;;
51260;SDS011;61705;46.228;24.812;2023-04-30T02:27:45;21.92;;;10.55;;
51260;SDS011;61705;46.228;24.812;2023-04-30T02:30:12;18.33;;;9.38;;
51260;SDS011;61705;46.228;24.812;2023-04-30T02:32:38;22.63;;;10.43;;
51260;SDS011;61705;46.228;24.812;2023-04-30T02:35:05;18.42;;;9.80;;
51260;SDS011;61705;46.228;24.812;2023-04-30T02:37:32;21.40;;;10.88;;
51260;SDS011;61705;46.228;24.812;2023-04-30T02:39:58;21.92;;;10.25;;
51260;SDS011;61705;46.228;24.812;2023-04-30T02:42:25;22.95;;;9.73;;
51260;SDS011;61705;46.228;24.812;2023-04-30T02:44:52;21.20;;;11.02;;
51260;SDS011;61705;46.228;24.812;2023-04-30T02:47:19;21.63;;;9.93;;
51260;SDS011;61705;46.228;24.812;2023-04-30T02:49:45;20.23;;;9.88;;
51260;SDS011;61705;46.228;24.812;2023-04-30T02:52:12;22.27;;;9.52;;
51260;SDS011;61705;46.228;24.812;2023-04-30T02:54:39;19.33;;;9.57;;
51260;SDS011;61705;46.228;24.812;2023-04-30T02:57:05;22.20;;;9.25;;
51260;SDS011;61705;46.228;24.812;2023-04-30T02:59:32;19.13;;;9.75;;
51260;SDS011;61705;46.228;24.812;2023-04-30T03:01:59;17.70;;;9.88;;
51260;SDS011;61705;46.228;24.812;2023-04-30T03:04:26;21.52;;;9.48;;
51260;SDS011;61705;46.228;24.812;2023-04-30T03:06:52;19.85;;;9.70;;
51260;SDS011;61705;46.228;24.812;2023-04-30T03:09:19;21.17;;;10.15;;
51260;SDS011;61705;46.228;24.812;2023-04-30T03:11:46;18.83;;;10.02;;
51260;SDS011;61705;46.228;24.812;2023-04-30T03:14:13;19.50;;;9.98;;
51260;SDS011;61705;46.228;24.812;2023-04-30T03:16:39;21.60;;;10.70;;
51260;SDS011;61705;46.228;24.812;2023-04-30T03:19:06;26.70;;;10.68;;
51260;SDS011;61705;46.228;24.812;2023-04-30T03:21:33;21.15;;;9.10;;
51260;SDS011;61705;46.228;24.812;2023-04-30T03:24:00;20.52;;;10.10;;
51260;SDS011;61705;46.228;24.812;2023-04-30T03:26:26;23.88;;;10.77;;
51260;SDS011;61705;46.228;24.812;2023-04-30T03:28:53;20.67;;;9.30;;
51260;SDS011;61705;46.228;24.812;2023-04-30T03:31:21;21.83;;;9.85;;
51260;SDS011;61705;46.228;24.812;2023-04-30T03:33:47;19.00;;;9.68;;
51260;SDS011;61705;46.228;24.812;2023-04-30T03:36:14;18.20;;;9.90;;
51260;SDS011;61705;46.228;24.812;2023-04-30T03:38:41;16.88;;;8.77;;
51260;SDS011;61705;46.228;24.812;2023-04-30T03:41:08;22.73;;;8.75;;
51260;SDS011;61705;46.228;24.812;2023-04-30T03:43:35;21.70;;;9.05;;
51260;SDS011;61705;46.228;24.812;2023-04-30T03:46:03;16.38;;;7.90;;
51260;SDS011;61705;46.228;24.812;2023-04-30T03:48:30;21.15;;;8.80;;
51260;SDS011;61705;46.228;24.812;2023-04-30T03:50:56;21.65;;;8.35;;
51260;SDS011;61705;46.228;24.812;2023-04-30T03:53:23;17.67;;;6.95;;
51260;SDS011;61705;46.228;24.812;2023-04-30T03:55:52;15.95;;;8.45;;
51260;SDS011;61705;46.228;24.812;2023-04-30T03:58:19;20.50;;;9.38;;
51260;SDS011;61705;46.228;24.812;2023-04-30T04:00:47;21.25;;;8.73;;
51260;SDS011;61705;46.228;24.812;2023-04-30T04:03:14;20.75;;;10.77;;
51260;SDS011;61705;46.228;24.812;2023-04-30T04:05:41;22.80;;;10.32;;
51260;SDS011;61705;46.228;24.812;2023-04-30T04:08:10;19.73;;;10.13;;
51260;SDS011;61705;46.228;24.812;2023-04-30T04:10:37;22.15;;;10.65;;
51260;SDS011;61705;46.228;24.812;2023-04-30T04:13:05;18.60;;;9.55;;
51260;SDS011;61705;46.228;24.812;2023-04-30T04:15:32;20.95;;;10.40;;
51260;SDS011;61705;46.228;24.812;2023-04-30T04:17:59;18.95;;;8.68;;
51260;SDS011;61705;46.228;24.812;2023-04-30T04:20:26;18.30;;;7.97;;
51260;SDS011;61705;46.228;24.812;2023-04-30T04:22:56;19.55;;;9.80;;
51260;SDS011;61705;46.228;24.812;2023-04-30T04:25:23;17.10;;;9.07;;
51260;SDS011;61705;46.228;24.812;2023-04-30T04:27:52;24.52;;;10.52;;
51260;SDS011;61705;46.228;24.812;2023-04-30T04:30:19;19.60;;;9.98;;
51260;SDS011;61705;46.228;24.812;2023-04-30T04:32:46;18.05;;;9.48;;
51260;SDS011;61705;46.228;24.812;2023-04-30T04:35:15;17.92;;;9.48;;
51260;SDS011;61705;46.228;24.812;2023-04-30T04:37:44;22.02;;;9.77;;
51260;SDS011;61705;46.228;24.812;2023-04-30T04:40:11;16.92;;;9.13;;
51260;SDS011;61705;46.228;24.812;2023-04-30T04:42:37;18.63;;;8.80;;
51260;SDS011;61705;46.228;24.812;2023-04-30T04:45:05;19.70;;;8.93;;
51260;SDS011;61705;46.228;24.812;2023-04-30T04:47:33;24.00;;;9.80;;
51260;SDS011;61705;46.228;24.812;2023-04-30T04:49:59;15.85;;;8.10;;
51260;SDS011;61705;46.228;24.812;2023-04-30T04:52:32;17.20;;;7.80;;
51260;SDS011;61705;46.228;24.812;2023-04-30T04:54:58;16.60;;;9.38;;
51260;SDS011;61705;46.228;24.812;2023-04-30T04:57:28;17.83;;;8.82;;
51260;SDS011;61705;46.228;24.812;2023-04-30T04:59:55;17.42;;;9.18;;
51260;SDS011;61705;46.228;24.812;2023-04-30T05:02:23;17.85;;;9.57;;
51260;SDS011;61705;46.228;24.812;2023-04-30T05:04:50;17.55;;;7.03;;
51260;SDS011;61705;46.228;24.812;2023-04-30T05:07:17;18.98;;;8.13;;
51260;SDS011;61705;46.228;24.812;2023-04-30T05:09:44;17.38;;;8.32;;
51260;SDS011;61705;46.228;24.812;2023-04-30T05:12:12;19.67;;;9.30;;
51260;SDS011;61705;46.228;24.812;2023-04-30T05:14:39;15.38;;;7.97;;
51260;SDS011;61705;46.228;24.812;2023-04-30T05:17:06;14.55;;;8.48;;
51260;SDS011;61705;46.228;24.812;2023-04-30T05:31:48;14.68;;;8.27;;
51260;SDS011;61705;46.228;24.812;2023-04-30T05:34:15;14.88;;;7.65;;
51260;SDS011;61705;46.228;24.812;2023-04-30T05:36:41;14.25;;;7.75;;
51260;SDS011;61705;46.228;24.812;2023-04-30T05:39:09;20.50;;;8.60;;
51260;SDS011;61705;46.228;24.812;2023-04-30T05:41:36;14.07;;;7.68;;
51260;SDS011;61705;46.228;24.812;2023-04-30T05:44:03;22.67;;;8.07;;
51260;SDS011;61705;46.228;24.812;2023-04-30T05:46:30;16.65;;;9.68;;
51260;SDS011;61705;46.228;24.812;2023-04-30T05:48:56;13.07;;;8.05;;
51260;SDS011;61705;46.228;24.812;2023-04-30T05:51:26;14.55;;;8.13;;
51260;SDS011;61705;46.228;24.812;2023-04-30T05:53:54;16.02;;;8.55;;
51260;SDS011;61705;46.228;24.812;2023-04-30T05:56:22;18.13;;;8.75;;
51260;SDS011;61705;46.228;24.812;2023-04-30T05:58:50;18.98;;;9.45;;
51260;SDS011;61705;46.228;24.812;2023-04-30T06:01:18;17.65;;;9.88;;
51260;SDS011;61705;46.228;24.812;2023-04-30T06:03:48;17.40;;;10.10;;
51260;SDS011;61705;46.228;24.812;2023-04-30T06:06:17;15.93;;;8.70;;
51260;SDS011;61705;46.228;24.812;2023-04-30T07:54:17;15.20;;;8.10;;
51260;SDS011;61705;46.228;24.812;2023-04-30T07:56:48;19.05;;;9.07;;
51260;SDS011;61705;46.228;24.812;2023-04-30T07:59:15;18.40;;;7.03;;
51260;SDS011;61705;46.228;24.812;2023-04-30T08:01:42;15.10;;;8.23;;
51260;SDS011;61705;46.228;24.812;2023-04-30T08:04:10;13.07;;;7.38;;
51260;SDS011;61705;46.228;24.812;2023-04-30T08:06:37;20.90;;;8.27;;
51260;SDS011;61705;46.228;24.812;2023-04-30T08:09:03;16.80;;;6.75;;
51260;SDS011;61705;46.228;24.812;2023-04-30T08:11:30;13.77;;;6.55;;
51260;SDS011;61705;46.228;24.812;2023-04-30T08:14:00;15.73;;;8.15;;
51260;SDS011;61705;46.228;24.812;2023-04-30T08:16:26;12.15;;;7.05;;
51260;SDS011;61705;46.228;24.812;2023-04-30T08:18:53;16.17;;;7.40;;
51260;SDS011;61705;46.228;24.812;2023-04-30T08:21:22;12.80;;;7.50;;
51260;SDS011;61705;46.228;24.812;2023-04-30T08:23:49;12.20;;;5.70;;
51260;SDS011;61705;46.228;24.812;2023-04-30T08:26:20;11.13;;;5.78;;
51260;SDS011;61705;46.228;24.812;2023-04-30T08:28:50;24.55;;;7.93;;
51260;SDS011;61705;46.228;24.812;2023-04-30T08:31:16;10.23;;;6.20;;
51260;SDS011;61705;46.228;24.812;2023-04-30T08:33:43;8.68;;;4.93;;
51260;SDS011;61705;46.228;24.812;2023-04-30T08:36:10;7.78;;;4.70;;
51260;SDS011;61705;46.228;24.812;2023-04-30T08:38:36;9.70;;;4.20;;
51260;SDS011;61705;46.228;24.812;2023-04-30T08:41:04;10.60;;;4.68;;
51260;SDS011;61705;46.228;24.812;2023-04-30T08:43:36;10.18;;;5.13;;
51260;SDS011;61705;46.228;24.812;2023-04-30T08:46:06;10.57;;;5.13;;
51260;SDS011;61705;46.228;24.812;2023-04-30T08:48:34;11.00;;;5.43;;
51260;SDS011;61705;46.228;24.812;2023-04-30T08:51:01;12.60;;;6.10;;
51260;SDS011;61705;46.228;24.812;2023-04-30T08:53:35;11.82;;;4.95;;
51260;SDS011;61705;46.228;24.812;2023-04-30T08:56:05;12.82;;;5.55;;
51260;SDS011;61705;46.228;24.812;2023-04-30T08:58:32;13.60;;;6.13;;
51260;SDS011;61705;46.228;24.812;2023-04-30T09:00:59;11.40;;;5.93;;
51260;SDS011;61705;46.228;24.812;2023-04-30T09:03:29;11.63;;;5.82;;
51260;SDS011;61705;46.228;24.812;2023-04-30T09:05:56;10.98;;;5.85;;
51260;SDS011;61705;46.228;24.812;2023-04-30T09:11:29;10.98;;;5.75;;
51260;SDS011;61705;46.228;24.812;2023-04-30T09:14:00;12.80;;;5.03;;
51260;SDS011;61705;46.228;24.812;2023-04-30T09:16:28;13.23;;;5.07;;
51260;SDS011;61705;46.228;24.812;2023-04-30T09:18:58;9.93;;;5.57;;
51260;SDS011;61705;46.228;24.812;2023-04-30T09:21:29;11.02;;;5.07;;
51260;SDS011;61705;46.228;24.812;2023-04-30T09:24:01;11.95;;;4.38;;
51260;SDS011;61705;46.228;24.812;2023-04-30T09:26:33;13.50;;;5.38;;
51260;SDS011;61705;46.228;24.812;2023-04-30T09:29:01;12.63;;;6.78;;
51260;SDS011;61705;46.228;24.812;2023-04-30T09:31:38;12.88;;;6.00;;
51260;SDS011;61705;46.228;24.812;2023-04-30T09:34:12;9.40;;;5.72;;
51260;SDS011;61705;46.228;24.812;2023-04-30T09:36:53;11.52;;;5.75;;
51260;SDS011;61705;46.228;24.812;2023-04-30T09:39:20;9.82;;;5.57;;
51260;SDS011;61705;46.228;24.812;2023-04-30T09:51:56;9.90;;;4.60;;
51260;SDS011;61705;46.228;24.812;2023-04-30T10:11:47;7.75;;;4.35;;
51260;SDS011;61705;46.228;24.812;2023-04-30T10:14:15;7.82;;;4.60;;
51260;SDS011;61705;46.228;24.812;2023-04-30T10:29:25;9.75;;;4.63;;
51260;SDS011;61705;46.228;24.812;2023-04-30T10:31:52;9.63;;;4.25;;
51260;SDS011;61705;46.228;24.812;2023-04-30T10:37:18;11.68;;;4.85;;
51260;SDS011;61705;46.228;24.812;2023-04-30T10:39:47;9.73;;;4.88;;
51260;SDS011;61705;46.228;24.812;2023-04-30T10:42:16;12.27;;;5.00;;
51260;SDS011;61705;46.228;24.812;2023-04-30T10:44:43;11.95;;;5.07;;
51260;SDS011;61705;46.228;24.812;2023-04-30T10:47:10;8.82;;;4.53;;
51260;SDS011;61705;46.228;24.812;2023-04-30T10:49:37;8.75;;;4.40;;
51260;SDS011;61705;46.228;24.812;2023-04-30T10:52:05;10.15;;;4.15;;
51260;SDS011;61705;46.228;24.812;2023-04-30T10:54:32;9.35;;;4.35;;
51260;SDS011;61705;46.228;24.812;2023-04-30T10:57:19;15.52;;;4.90;;
51260;SDS011;61705;46.228;24.812;2023-04-30T11:02:42;8.98;;;4.63;;
51260;SDS011;61705;46.228;24.812;2023-04-30T11:07:50;8.10;;;3.92;;
51260;SDS011;61705;46.228;24.812;2023-04-30T11:10:25;12.60;;;3.35;;
51260;SDS011;61705;46.228;24.812;2023-04-30T11:12:54;9.30;;;3.83;;
51260;SDS011;61705;46.228;24.812;2023-04-30T11:15:24;8.10;;;3.70;;
51260;SDS011;61705;46.228;24.812;2023-04-30T11:17:56;8.85;;;4.20;;
51260;SDS011;61705;46.228;24.812;2023-04-30T11:23:07;7.88;;;3.88;;
51260;SDS011;61705;46.228;24.812;2023-04-30T11:25:45;6.47;;;3.20;;
51260;SDS011;61705;46.228;24.812;2023-04-30T11:28:14;8.63;;;3.42;;
51260;SDS011;61705;46.228;24.812;2023-04-30T11:30:56;7.97;;;3.25;;
51260;SDS011;61705;46.228;24.812;2023-04-30T11:33:24;7.25;;;3.13;;
51260;SDS011;61705;46.228;24.812;2023-04-30T11:35:53;5.97;;;3.00;;
51260;SDS011;61705;46.228;24.812;2023-04-30T11:38:30;5.78;;;3.38;;
51260;SDS011;61705;46.228;24.812;2023-04-30T11:43:28;13.50;;;4.30;;
51260;SDS011;61705;46.228;24.812;2023-04-30T11:46:09;6.78;;;3.53;;
51260;SDS011;61705;46.228;24.812;2023-04-30T11:48:38;5.78;;;3.67;;
51260;SDS011;61705;46.228;24.812;2023-04-30T11:51:15;6.90;;;3.65;;
51260;SDS011;61705;46.228;24.812;2023-04-30T11:53:46;5.82;;;3.35;;
51260;SDS011;61705;46.228;24.812;2023-04-30T11:56:16;4.93;;;3.00;;
51260;SDS011;61705;46.228;24.812;2023-04-30T11:58:47;6.07;;;3.70;;
51260;SDS011;61705;46.228;24.812;2023-04-30T12:01:15;10.13;;;3.78;;
51260;SDS011;61705;46.228;24.812;2023-04-30T12:03:45;5.70;;;2.70;;
51260;SDS011;61705;46.228;24.812;2023-04-30T12:06:25;5.07;;;2.97;;
51260;SDS011;61705;46.228;24.812;2023-04-30T12:08:57;7.75;;;2.97;;
51260;SDS011;61705;46.228;24.812;2023-04-30T12:11:27;6.53;;;3.00;;
51260;SDS011;61705;46.228;24.812;2023-04-30T12:14:02;5.03;;;2.33;;
51260;SDS011;61705;46.228;24.812;2023-04-30T12:16:40;5.85;;;3.35;;
51260;SDS011;61705;46.228;24.812;2023-04-30T12:21:34;5.80;;;2.97;;
51260;SDS011;61705;46.228;24.812;2023-04-30T12:24:04;8.23;;;3.30;;
51260;SDS011;61705;46.228;24.812;2023-04-30T12:26:37;7.47;;;2.90;;
51260;SDS011;61705;46.228;24.812;2023-04-30T12:29:08;4.40;;;2.55;;
51260;SDS011;61705;46.228;24.812;2023-04-30T12:31:40;6.28;;;2.90;;
51260;SDS011;61705;46.228;24.812;2023-04-30T12:34:08;6.32;;;2.47;;
51260;SDS011;61705;46.228;24.812;2023-04-30T12:36:35;4.65;;;2.35;;
51260;SDS011;61705;46.228;24.812;2023-04-30T12:39:05;4.55;;;2.67;;
51260;SDS011;61705;46.228;24.812;2023-04-30T12:41:39;6.55;;;3.08;;
51260;SDS011;61705;46.228;24.812;2023-04-30T12:46:49;5.07;;;2.72;;
51260;SDS011;61705;46.228;24.812;2023-04-30T12:49:22;5.18;;;2.53;;
51260;SDS011;61705;46.228;24.812;2023-04-30T12:52:03;7.65;;;3.08;;
51260;SDS011;61705;46.228;24.812;2023-04-30T12:54:34;5.20;;;2.90;;
51260;SDS011;61705;46.228;24.812;2023-04-30T12:57:05;9.32;;;3.50;;
51260;SDS011;61705;46.228;24.812;2023-04-30T12:59:38;6.43;;;2.78;;
51260;SDS011;61705;46.228;24.812;2023-04-30T13:02:22;6.55;;;2.83;;
51260;SDS011;61705;46.228;24.812;2023-04-30T13:04:51;7.18;;;3.40;;
51260;SDS011;61705;46.228;24.812;2023-04-30T13:07:19;5.50;;;3.00;;
51260;SDS011;61705;46.228;24.812;2023-04-30T13:09:46;11.10;;;3.42;;
51260;SDS011;61705;46.228;24.812;2023-04-30T13:12:13;6.53;;;2.75;;
51260;SDS011;61705;46.228;24.812;2023-04-30T13:14:40;5.38;;;3.10;;
51260;SDS011;61705;46.228;24.812;2023-04-30T13:17:07;6.93;;;3.15;;
51260;SDS011;61705;46.228;24.812;2023-04-30T13:19:35;5.95;;;3.00;;
51260;SDS011;61705;46.228;24.812;2023-04-30T13:22:02;5.65;;;2.53;;
51260;SDS011;61705;46.228;24.812;2023-04-30T13:24:28;10.07;;;4.55;;
51260;SDS011;61705;46.228;24.812;2023-04-30T13:26:56;6.63;;;2.55;;
51260;SDS011;61705;46.228;24.812;2023-04-30T13:29:24;4.55;;;2.90;;
51260;SDS011;61705;46.228;24.812;2023-04-30T13:31:51;7.47;;;3.03;;
51260;SDS011;61705;46.228;24.812;2023-04-30T13:34:18;9.98;;;2.80;;
51260;SDS011;61705;46.228;24.812;2023-04-30T13:36:44;7.38;;;2.75;;
51260;SDS011;61705;46.228;24.812;2023-04-30T13:39:12;5.30;;;2.10;;
51260;SDS011;61705;46.228;24.812;2023-04-30T13:41:38;3.70;;;2.50;;
51260;SDS011;61705;46.228;24.812;2023-04-30T13:44:05;4.18;;;2.42;;
51260;SDS011;61705;46.228;24.812;2023-04-30T13:46:32;12.73;;;3.10;;
51260;SDS011;61705;46.228;24.812;2023-04-30T13:48:58;6.85;;;2.72;;
51260;SDS011;61705;46.228;24.812;2023-04-30T13:51:25;6.07;;;2.78;;
51260;SDS011;61705;46.228;24.812;2023-04-30T13:53:53;4.80;;;2.47;;
51260;SDS011;61705;46.228;24.812;2023-04-30T13:56:19;3.90;;;1.92;;
51260;SDS011;61705;46.228;24.812;2023-04-30T13:58:46;5.68;;;2.15;;
51260;SDS011;61705;46.228;24.812;2023-04-30T14:01:13;4.03;;;2.20;;
51260;SDS011;61705;46.228;24.812;2023-04-30T14:03:39;5.85;;;2.15;;
51260;SDS011;61705;46.228;24.812;2023-04-30T14:06:06;3.95;;;2.10;;
51260;SDS011;61705;46.228;24.812;2023-04-30T14:08:33;3.88;;;2.13;;
51260;SDS011;61705;46.228;24.812;2023-04-30T14:11:00;5.75;;;2.15;;
51260;SDS011;61705;46.228;24.812;2023-04-30T14:13:27;5.38;;;2.67;;
51260;SDS011;61705;46.228;24.812;2023-04-30T14:15:56;5.10;;;2.80;;
51260;SDS011;61705;46.228;24.812;2023-04-30T14:18:23;5.95;;;2.10;;
51260;SDS011;61705;46.228;24.812;2023-04-30T14:20:50;6.35;;;2.65;;
51260;SDS011;61705;46.228;24.812;2023-04-30T14:23:16;4.78;;;2.13;;
51260;SDS011;61705;46.228;24.812;2023-04-30T14:25:43;5.20;;;2.80;;
51260;SDS011;61705;46.228;24.812;2023-04-30T14:28:09;5.97;;;2.55;;
51260;SDS011;61705;46.228;24.812;2023-04-30T14:30:37;4.88;;;2.30;;
51260;SDS011;61705;46.228;24.812;2023-04-30T14:33:04;3.15;;;2.03;;
51260;SDS011;61705;46.228;24.812;2023-04-30T14:35:31;4.78;;;1.95;;
51260;SDS011;61705;46.228;24.812;2023-04-30T14:37:58;3.22;;;2.08;;
51260;SDS011;61705;46.228;24.812;2023-04-30T14:40:25;5.68;;;3.05;;
51260;SDS011;61705;46.228;24.812;2023-04-30T14:42:52;8.18;;;2.80;;
51260;SDS011;61705;46.228;24.812;2023-04-30T14:45:24;3.25;;;2.15;;
51260;SDS011;61705;46.228;24.812;2023-04-30T14:47:53;4.47;;;2.50;;
51260;SDS011;61705;46.228;24.812;2023-04-30T14:50:21;6.05;;;2.72;;
51260;SDS011;61705;46.228;24.812;2023-04-30T14:52:49;5.53;;;2.15;;
51260;SDS011;61705;46.228;24.812;2023-04-30T14:55:16;5.78;;;2.20;;
51260;SDS011;61705;46.228;24.812;2023-04-30T14:57:43;4.03;;;2.40;;
51260;SDS011;61705;46.228;24.812;2023-04-30T15:00:15;55.92;;;28.77;;
51260;SDS011;61705;46.228;24.812;2023-04-30T15:02:42;6.60;;;2.60;;
51260;SDS011;61705;46.228;24.812;2023-04-30T15:05:08;3.13;;;2.28;;
51260;SDS011;61705;46.228;24.812;2023-04-30T15:07:35;3.35;;;2.08;;
51260;SDS011;61705;46.228;24.812;2023-04-30T15:10:02;6.75;;;2.45;;
51260;SDS011;61705;46.228;24.812;2023-04-30T15:12:29;6.05;;;2.20;;
51260;SDS011;61705;46.228;24.812;2023-04-30T15:14:55;4.30;;;2.50;;
51260;SDS011;61705;46.228;24.812;2023-04-30T15:17:22;9.80;;;2.65;;
51260;SDS011;61705;46.228;24.812;2023-04-30T15:19:49;6.75;;;3.90;;
51260;SDS011;61705;46.228;24.812;2023-04-30T15:22:16;6.57;;;2.38;;
51260;SDS011;61705;46.228;24.812;2023-04-30T15:24:45;6.88;;;2.22;;
51260;SDS011;61705;46.228;24.812;2023-04-30T15:27:15;5.03;;;2.30;;
51260;SDS011;61705;46.228;24.812;2023-04-30T15:29:42;4.75;;;2.33;;
51260;SDS011;61705;46.228;24.812;2023-04-30T15:32:11;6.45;;;2.55;;
51260;SDS011;61705;46.228;24.812;2023-04-30T15:34:41;5.18;;;2.22;;
51260;SDS011;61705;46.228;24.812;2023-04-30T15:37:11;4.95;;;2.88;;
51260;SDS011;61705;46.228;24.812;2023-04-30T15:42:14;4.82;;;2.50;;
51260;SDS011;61705;46.228;24.812;2023-04-30T15:44:46;3.60;;;2.20;;
51260;SDS011;61705;46.228;24.812;2023-04-30T15:47:13;3.50;;;2.22;;
51260;SDS011;61705;46.228;24.812;2023-04-30T15:49:40;5.85;;;2.15;;
51260;SDS011;61705;46.228;24.812;2023-04-30T15:52:08;4.53;;;2.20;;
51260;SDS011;61705;46.228;24.812;2023-04-30T15:54:35;4.93;;;2.50;;
51260;SDS011;61705;46.228;24.812;2023-04-30T15:57:02;3.70;;;2.40;;
51260;SDS011;61705;46.228;24.812;2023-04-30T15:59:29;4.07;;;2.30;;
51260;SDS011;61705;46.228;24.812;2023-04-30T16:01:56;3.88;;;2.47;;
51260;SDS011;61705;46.228;24.812;2023-04-30T16:04:24;13.05;;;4.90;;
51260;SDS011;61705;46.228;24.812;2023-04-30T16:06:50;11.18;;;4.13;;
51260;SDS011;61705;46.228;24.812;2023-04-30T16:09:17;8.20;;;3.03;;
51260;SDS011;61705;46.228;24.812;2023-04-30T16:11:46;6.43;;;3.00;;
51260;SDS011;61705;46.228;24.812;2023-04-30T16:14:12;6.93;;;2.30;;
51260;SDS011;61705;46.228;24.812;2023-04-30T16:16:39;5.07;;;2.25;;
51260;SDS011;61705;46.228;24.812;2023-04-30T16:19:08;6.65;;;2.55;;
51260;SDS011;61705;46.228;24.812;2023-04-30T16:21:37;4.68;;;2.83;;
51260;SDS011;61705;46.228;24.812;2023-04-30T16:24:04;22.20;;;5.07;;
51260;SDS011;61705;46.228;24.812;2023-04-30T16:26:32;8.07;;;3.42;;
51260;SDS011;61705;46.228;24.812;2023-04-30T16:29:02;6.07;;;2.90;;
51260;SDS011;61705;46.228;24.812;2023-04-30T16:31:29;10.52;;;2.90;;
51260;SDS011;61705;46.228;24.812;2023-04-30T16:33:56;7.03;;;3.10;;
51260;SDS011;61705;46.228;24.812;2023-04-30T16:36:23;6.20;;;2.78;;
51260;SDS011;61705;46.228;24.812;2023-04-30T16:38:49;8.80;;;2.65;;
51260;SDS011;61705;46.228;24.812;2023-04-30T16:41:16;5.57;;;2.60;;
51260;SDS011;61705;46.228;24.812;2023-04-30T16:43:43;5.50;;;2.67;;
51260;SDS011;61705;46.228;24.812;2023-04-30T16:46:10;6.97;;;2.67;;
51260;SDS011;61705;46.228;24.812;2023-04-30T16:48:37;5.07;;;2.40;;
51260;SDS011;61705;46.228;24.812;2023-04-30T16:51:03;8.93;;;3.53;;
51260;SDS011;61705;46.228;24.812;2023-04-30T16:53:32;8.95;;;3.33;;
51260;SDS011;61705;46.228;24.812;2023-04-30T16:55:59;18.08;;;7.53;;
51260;SDS011;61705;46.228;24.812;2023-04-30T16:58:28;10.05;;;5.28;;
51260;SDS011;61705;46.228;24.812;2023-04-30T17:00:57;6.40;;;2.58;;
51260;SDS011;61705;46.228;24.812;2023-04-30T17:03:24;5.43;;;2.70;;
51260;SDS011;61705;46.228;24.812;2023-04-30T17:05:51;3.55;;;2.00;;
51260;SDS011;61705;46.228;24.812;2023-04-30T17:08:18;4.38;;;2.55;;
51260;SDS011;61705;46.228;24.812;2023-04-30T17:10:45;9.23;;;2.30;;
51260;SDS011;61705;46.228;24.812;2023-04-30T17:13:12;5.57;;;2.10;;
51260;SDS011;61705;46.228;24.812;2023-04-30T17:15:39;8.10;;;2.45;;
51260;SDS011;61705;46.228;24.812;2023-04-30T17:20:34;4.57;;;1.98;;
51260;SDS011;61705;46.228;24.812;2023-04-30T17:23:02;5.00;;;2.20;;
51260;SDS011;61705;46.228;24.812;2023-04-30T17:25:28;4.93;;;2.13;;
51260;SDS011;61705;46.228;24.812;2023-04-30T17:27:57;8.88;;;3.17;;
51260;SDS011;61705;46.228;24.812;2023-04-30T17:30:27;13.02;;;4.45;;
51260;SDS011;61705;46.228;24.812;2023-04-30T17:32:54;21.27;;;8.02;;
51260;SDS011;61705;46.228;24.812;2023-04-30T17:35:22;3.65;;;2.00;;
51260;SDS011;61705;46.228;24.812;2023-04-30T17:37:48;6.25;;;2.33;;
51260;SDS011;61705;46.228;24.812;2023-04-30T17:40:15;12.88;;;7.10;;
51260;SDS011;61705;46.228;24.812;2023-04-30T17:42:43;10.80;;;5.53;;
51260;SDS011;61705;46.228;24.812;2023-04-30T17:45:17;6.18;;;3.65;;
51260;SDS011;61705;46.228;24.812;2023-04-30T17:47:45;6.70;;;4.25;;
51260;SDS011;61705;46.228;24.812;2023-04-30T17:50:12;8.30;;;4.95;;
51260;SDS011;61705;46.228;24.812;2023-04-30T17:52:38;14.93;;;8.00;;
51260;SDS011;61705;46.228;24.812;2023-04-30T17:55:06;5.53;;;3.75;;